Time;durP1;ratioP1;P1;durP2;ratioP2;P2;SDS_P1;SDS_P2;PMS_P1;PMS_P2;Temp;Humidity;BMP_temperature;BMP_pressure;BME280_temperature;BME280_humidity;BME280_pressure;Samples;Min_cycle;Max_cycle;Signal;HPM_P1;HPM_P2
2023/11/06 00:00:42;;;;;;;1.35;0.10;;;11.20;99.90;;;;;;5013263;28;20068;-67
2023/11/06 00:03:08;;;;;;;0.28;0.20;;;11.20;99.90;;;;;;5014239;28;20118;-68
2023/11/06 00:05:38;;;;;;;0.98;0.47;;;11.20;99.90;;;;;;5013688;28;20121;-67
2023/11/06 00:08:05;;;;;;;1.65;0.43;;;11.10;99.90;;;;;;5012974;28;20041;-67
2023/11/06 00:10:30;;;;;;;0.20;0.20;;;11.10;99.90;;;;;;5014048;28;20038;-67
2023/11/06 00:12:56;;;;;;;0.25;0.10;;;11.10;99.90;;;;;;5012885;28;20034;-67
2023/11/06 00:15:22;;;;;;;6.43;0.65;;;11.10;99.90;;;;;;5013587;28;20117;-67
2023/11/06 00:17:48;;;;;;;1.20;0.77;;;11.10;99.90;;;;;;4996382;28;20049;-67
2023/11/06 00:20:16;;;;;;;0.17;0.17;;;11.10;99.90;;;;;;4978226;28;20471;-67
2023/11/06 00:22:42;;;;;;;8.82;0.75;;;11.20;99.90;;;;;;5014259;28;20026;-67
2023/11/06 00:25:08;;;;;;;0.20;0.13;;;11.20;99.90;;;;;;4995757;28;20026;-67
2023/11/06 00:27:34;;;;;;;0.50;0.50;;;11.10;99.90;;;;;;5012368;28;20029;-68
2023/11/06 00:30:00;;;;;;;0.60;0.20;;;11.10;99.90;;;;;;4996136;28;20498;-68
2023/11/06 00:32:26;;;;;;;1.98;0.35;;;11.10;99.90;;;;;;5020440;28;20061;-68
2023/11/06 00:34:52;;;;;;;4.38;0.30;;;11.10;99.90;;;;;;4996623;28;20486;-68
2023/11/06 00:37:18;;;;;;;0.32;0.32;;;11.00;99.90;;;;;;4989274;28;20033;-68
2023/11/06 00:39:44;;;;;;;6.28;1.27;;;11.00;99.90;;;;;;5014004;28;20152;-68
2023/11/06 00:42:10;;;;;;;0.17;0.15;;;11.00;99.90;;;;;;4995909;28;20061;-68
2023/11/06 00:44:36;;;;;;;0.75;0.75;;;10.90;99.90;;;;;;5013896;28;20037;-68
2023/11/06 00:47:02;;;;;;;4.00;0.63;;;10.90;99.90;;;;;;5012410;28;20088;-68
2023/11/06 00:49:27;;;;;;;7.68;2.17;;;10.90;99.90;;;;;;4995936;28;20038;-68
2023/11/06 00:51:53;;;;;;;6.75;0.75;;;10.90;99.90;;;;;;5012399;28;20038;-68
2023/11/06 00:54:20;;;;;;;0.45;0.40;;;10.90;99.90;;;;;;5013370;28;20056;-68
2023/11/06 00:56:46;;;;;;;0.20;0.17;;;10.90;99.90;;;;;;4995166;28;20504;-68
2023/11/06 00:59:16;;;;;;;2.88;0.55;;;10.90;99.90;;;;;;5004090;28;20056;-69
2023/11/06 01:01:43;;;;;;;0.28;0.17;;;11.00;99.90;;;;;;4997770;28;20037;-67
2023/11/06 01:04:10;;;;;;;0.20;0.20;;;11.00;99.90;;;;;;5012926;28;20026;-68
2023/11/06 01:06:36;;;;;;;0.20;0.17;;;11.00;99.90;;;;;;4991735;28;20045;-68
2023/11/06 01:09:02;;;;;;;2.88;0.60;;;11.00;99.90;;;;;;4978656;28;20041;-68
2023/11/06 01:11:28;;;;;;;0.30;0.30;;;11.00;99.90;;;;;;4989558;28;20046;-68
2023/11/06 01:13:55;;;;;;;0.82;0.52;;;11.00;99.90;;;;;;4995842;28;20026;-67
2023/11/06 01:16:21;;;;;;;2.50;0.50;;;11.10;99.90;;;;;;4989069;28;20124;-67
2023/11/06 01:18:47;;;;;;;1.90;0.22;;;11.10;99.90;;;;;;4987498;28;20025;-68
2023/11/06 01:21:13;;;;;;;0.43;0.40;;;11.10;99.90;;;;;;4988905;28;20032;-68
2023/11/06 01:23:39;;;;;;;1.75;0.63;;;11.10;99.90;;;;;;4975836;28;20061;-68
2023/11/06 01:26:04;;;;;;;0.45;0.45;;;11.00;99.90;;;;;;5010255;28;20032;-67
2023/11/06 01:28:30;;;;;;;0.20;0.20;;;11.00;99.90;;;;;;5012855;28;20049;-67
2023/11/06 01:30:56;;;;;;;4.18;0.35;;;11.00;99.90;;;;;;5012180;28;20037;-67
2023/11/06 01:33:22;;;;;;;15.93;1.30;;;11.00;99.90;;;;;;5012631;28;20053;-67
2023/11/06 01:35:48;;;;;;;0.85;0.52;;;11.00;99.90;;;;;;4994707;28;20056;-68
2023/11/06 01:38:14;;;;;;;6.03;0.85;;;10.90;99.90;;;;;;5017062;28;20029;-67
2023/11/06 01:40:40;;;;;;;1.75;1.30;;;10.90;99.90;;;;;;5003260;28;20033;-67
2023/11/06 01:43:06;;;;;;;1.00;0.38;;;10.80;99.90;;;;;;5022918;28;20079;-67
2023/11/06 01:45:33;;;;;;;7.80;0.63;;;10.80;99.90;;;;;;5022450;28;20130;-67
2023/11/06 01:48:00;;;;;;;11.05;0.65;;;10.70;99.90;;;;;;5021791;28;20076;-68
2023/11/06 01:50:33;;;;;;;5.05;0.52;;;10.70;99.90;;;;;;5021405;28;20045;-67
2023/11/06 01:53:03;;;;;;;1.35;0.52;;;10.70;99.90;;;;;;5021355;28;20048;-67
2023/11/06 01:55:31;;;;;;;0.20;0.20;;;10.60;99.90;;;;;;5022037;28;20030;-68
2023/11/06 01:57:56;;;;;;;0.43;0.43;;;10.70;99.90;;;;;;5004065;28;20052;-68
2023/11/06 02:00:26;;;;;;;1.08;0.75;;;10.70;99.90;;;;;;5004518;28;20109;-68
2023/11/06 02:02:52;;;;;;;0.22;0.15;;;10.70;99.90;;;;;;5020287;28;20021;-68
2023/11/06 02:05:18;;;;;;;1.88;0.32;;;10.70;99.90;;;;;;5017255;28;20742;-68
2023/11/06 02:07:48;;;;;;;10.95;1.35;;;10.70;99.90;;;;;;5017354;28;20091;-67
2023/11/06 02:10:17;;;;;;;2.05;0.75;;;10.70;99.90;;;;;;5018731;28;20029;-68
2023/11/06 02:12:44;;;;;;;7.78;1.35;;;10.70;99.90;;;;;;5004561;28;20026;-67
2023/11/06 02:15:13;;;;;;;0.70;0.38;;;10.70;99.90;;;;;;5019332;28;20037;-67
2023/11/06 02:17:41;;;;;;;1.00;0.20;;;10.60;99.90;;;;;;5019742;28;20394;-69
2023/11/06 02:20:12;;;;;;;2.22;1.25;;;10.60;99.90;;;;;;5019661;28;20078;-68
2023/11/06 02:22:43;;;;;;;1.00;0.30;;;10.60;99.90;;;;;;5004560;28;20022;-68
2023/11/06 02:25:09;;;;;;;0.00;0.00;;;10.60;99.90;;;;;;5000967;28;20034;-67
2023/11/06 02:27:35;;;;;;;2.03;0.85;;;10.60;99.90;;;;;;5020955;28;20030;-68
2023/11/06 02:30:02;;;;;;;0.75;0.32;;;10.60;99.90;;;;;;5020950;28;20466;-67
2023/11/06 02:32:28;;;;;;;0.30;0.30;;;10.60;99.90;;;;;;4986286;28;20025;-67
2023/11/06 02:34:54;;;;;;;1.38;1.27;;;10.50;99.90;;;;;;5004417;28;20125;-67
2023/11/06 02:37:19;;;;;;;2.30;0.50;;;10.50;99.90;;;;;;5003815;28;20034;-68
2023/11/06 02:39:45;;;;;;;3.90;0.45;;;10.40;99.90;;;;;;5003793;28;20025;-68
2023/11/06 02:42:11;;;;;;;0.45;0.40;;;10.40;99.90;;;;;;5021304;28;20036;-68
2023/11/06 02:44:37;;;;;;;0.20;0.20;;;10.30;99.90;;;;;;5019518;28;20474;-68
2023/11/06 02:47:02;;;;;;;3.17;1.85;;;10.30;99.90;;;;;;5020687;28;20060;-68
2023/11/06 02:49:28;;;;;;;0.52;0.22;;;10.30;99.90;;;;;;5020366;28;20037;-68
2023/11/06 02:51:54;;;;;;;1.75;0.45;;;10.20;99.90;;;;;;5019189;28;20109;-68
2023/11/06 02:54:24;;;;;;;1.95;0.60;;;10.10;99.90;;;;;;5022312;28;20520;-68
2023/11/06 02:56:50;;;;;;;1.65;0.95;;;10.10;99.90;;;;;;5017261;28;20072;-68
2023/11/06 02:59:16;;;;;;;0.20;0.20;;;10.00;99.90;;;;;;5003270;28;20378;-68
2023/11/06 03:01:42;;;;;;;0.10;0.10;;;10.00;99.90;;;;;;5017206;28;20056;-68
2023/11/06 03:04:12;;;;;;;0.68;0.38;;;9.90;99.90;;;;;;5019724;28;20707;-68
2023/11/06 03:06:40;;;;;;;0.30;0.25;;;9.90;99.90;;;;;;5016678;28;20309;-67
2023/11/06 03:09:07;;;;;;;0.63;0.47;;;9.90;99.90;;;;;;5020514;28;20044;-67
2023/11/06 03:11:33;;;;;;;1.70;0.85;;;9.80;99.90;;;;;;5020104;28;20029;-67
2023/11/06 03:13:58;;;;;;;6.75;0.25;;;9.80;99.90;;;;;;5021435;28;20040;-68
2023/11/06 03:16:24;;;;;;;2.33;0.88;;;9.80;99.90;;;;;;5021943;28;20095;-67
2023/11/06 03:18:50;;;;;;;0.63;0.40;;;9.70;99.90;;;;;;5024888;28;20474;-68
2023/11/06 03:21:16;;;;;;;2.63;0.25;;;9.70;99.90;;;;;;5024221;28;20034;-68
2023/11/06 03:23:41;;;;;;;0.43;0.10;;;9.70;99.90;;;;;;5025035;28;20045;-67
2023/11/06 03:26:07;;;;;;;2.38;0.63;;;9.60;99.90;;;;;;5021595;28;20037;-67
2023/11/06 03:28:34;;;;;;;1.10;0.17;;;9.60;99.90;;;;;;5022954;28;20033;-68
2023/11/06 03:30:59;;;;;;;1.25;1.15;;;9.70;99.90;;;;;;5022933;28;20044;-68
2023/11/06 03:33:26;;;;;;;2.83;1.00;;;9.70;99.90;;;;;;5024013;28;20038;-67
2023/11/06 03:35:52;;;;;;;5.32;0.35;;;9.70;99.90;;;;;;5004217;28;20130;-67
2023/11/06 03:38:18;;;;;;;1.92;0.30;;;9.70;99.90;;;;;;5025600;28;20026;-67
2023/11/06 03:40:44;;;;;;;14.80;0.55;;;9.80;99.90;;;;;;5005153;28;20033;-67
2023/11/06 03:43:10;;;;;;;0.20;0.20;;;9.70;99.90;;;;;;5024188;28;20029;-67
2023/11/06 03:45:35;;;;;;;0.63;0.45;;;9.70;99.90;;;;;;5022613;28;20034;-67
2023/11/06 03:48:01;;;;;;;4.53;0.60;;;9.80;99.90;;;;;;5021451;28;20026;-67
2023/11/06 03:50:27;;;;;;;1.08;0.98;;;9.70;99.90;;;;;;5022835;28;20131;-67
2023/11/06 03:52:52;;;;;;;0.98;0.43;;;9.70;99.90;;;;;;5022376;28;20065;-66
2023/11/06 03:55:18;;;;;;;4.43;1.55;;;9.70;99.90;;;;;;5002886;28;20048;-67
2023/11/06 03:57:44;;;;;;;1.70;1.02;;;9.70;99.90;;;;;;5003704;28;20029;-67
2023/11/06 04:00:11;;;;;;;0.17;0.10;;;9.70;99.90;;;;;;5019483;28;20084;-68
2023/11/06 04:02:37;;;;;;;0.93;0.85;;;9.70;99.90;;;;;;5020915;28;20148;-67
2023/11/06 04:05:03;;;;;;;0.30;0.30;;;9.70;99.90;;;;;;5020611;28;20089;-68
2023/11/06 04:07:29;;;;;;;0.82;0.50;;;9.70;99.90;;;;;;5020260;28;20044;-67
2023/11/06 04:09:57;;;;;;;1.33;0.55;;;9.70;99.90;;;;;;5022185;28;20382;-67
2023/11/06 04:12:23;;;;;;;0.00;0.00;;;9.60;99.90;;;;;;5022923;28;20493;-67
2023/11/06 04:14:49;;;;;;;1.55;0.15;;;9.60;99.90;;;;;;5021957;28;20029;-68
2023/11/06 04:17:15;;;;;;;2.80;0.30;;;9.60;99.90;;;;;;5004479;28;20034;-68
2023/11/06 04:19:41;;;;;;;6.82;0.90;;;9.60;99.90;;;;;;5019689;28;20022;-68
2023/11/06 04:22:10;;;;;;;0.20;0.20;;;9.50;99.90;;;;;;5019318;28;20033;-68
2023/11/06 04:24:35;;;;;;;0.45;0.40;;;9.50;99.90;;;;;;5018697;28;20366;-68
2023/11/06 04:27:01;;;;;;;1.20;0.63;;;9.50;99.90;;;;;;5019907;28;20025;-68
2023/11/06 04:29:27;;;;;;;3.40;0.20;;;9.50;99.90;;;;;;5020088;28;20108;-68
2023/11/06 04:31:53;;;;;;;4.13;0.40;;;9.50;99.90;;;;;;5020972;28;20448;-68
2023/11/06 04:34:19;;;;;;;0.00;0.00;;;9.60;99.90;;;;;;5005838;28;20059;-68
2023/11/06 04:36:44;;;;;;;0.10;0.10;;;9.60;99.90;;;;;;4998874;28;20029;-68
2023/11/06 04:39:10;;;;;;;2.13;0.85;;;9.70;99.90;;;;;;5021954;28;20037;-68
2023/11/06 04:41:38;;;;;;;0.10;0.10;;;9.70;99.90;;;;;;5019656;28;20061;-68
2023/11/06 04:44:05;;;;;;;5.93;1.90;;;9.70;99.90;;;;;;5020028;28;20041;-68
2023/11/06 04:46:31;;;;;;;0.00;0.00;;;9.70;99.90;;;;;;5018445;28;20080;-68
2023/11/06 04:48:57;;;;;;;3.25;0.95;;;9.70;99.90;;;;;;5018428;28;20022;-68
2023/11/06 04:51:23;;;;;;;0.05;0.05;;;9.70;99.90;;;;;;5003518;28;20082;-68
2023/11/06 04:53:48;;;;;;;6.13;1.00;;;9.80;99.90;;;;;;4983603;28;1070302;-68
2023/11/06 04:56:14;;;;;;;0.08;0.08;;;9.80;99.90;;;;;;5019398;28;20370;-68
2023/11/06 04:58:40;;;;;;;0.00;0.00;;;9.90;99.90;;;;;;5020006;28;20108;-68
2023/11/06 05:01:09;;;;;;;1.00;0.75;;;9.90;99.90;;;;;;5021041;28;20030;-68
2023/11/06 05:03:35;;;;;;;2.05;0.82;;;9.90;99.90;;;;;;5020637;28;20037;-68
2023/11/06 05:06:00;;;;;;;1.67;0.45;;;10.00;99.90;;;;;;5020037;28;20437;-68
2023/11/06 05:08:29;;;;;;;0.00;0.00;;;10.00;99.90;;;;;;5027333;28;20087;-68
2023/11/06 05:10:57;;;;;;;0.40;0.40;;;10.10;99.90;;;;;;5018648;28;20034;-68
2023/11/06 05:13:23;;;;;;;0.20;0.20;;;10.10;99.90;;;;;;5023472;28;20022;-68
2023/11/06 05:15:49;;;;;;;5.53;0.68;;;10.10;99.90;;;;;;5018330;28;20041;-68
2023/11/06 05:18:15;;;;;;;0.63;0.40;;;10.00;99.90;;;;;;5021350;28;20107;-68
2023/11/06 05:20:44;;;;;;;3.42;1.13;;;10.10;99.90;;;;;;5020418;28;20026;-68
2023/11/06 05:23:10;;;;;;;3.10;0.60;;;10.10;99.90;;;;;;5020859;28;20056;-68
2023/11/06 05:25:36;;;;;;;0.30;0.30;;;10.00;99.90;;;;;;5019297;28;20061;-68
2023/11/06 05:28:03;;;;;;;1.90;0.20;;;10.00;99.90;;;;;;5020882;28;20029;-68
2023/11/06 05:30:29;;;;;;;1.40;0.52;;;10.00;99.90;;;;;;5002862;28;20033;-68
2023/11/06 05:32:57;;;;;;;0.00;0.00;;;10.10;99.90;;;;;;5021873;28;20022;-68
2023/11/06 05:35:23;;;;;;;1.08;0.20;;;10.10;99.90;;;;;;5019370;28;20436;-68
2023/11/06 05:37:50;;;;;;;1.35;0.52;;;10.10;99.90;;;;;;5003834;28;20513;-68
2023/11/06 05:40:16;;;;;;;1.45;0.35;;;10.10;99.90;;;;;;5018479;28;20049;-66
2023/11/06 05:42:42;;;;;;;1.27;0.82;;;10.10;99.90;;;;;;5004807;28;20381;-68
2023/11/06 05:45:09;;;;;;;2.20;0.63;;;10.10;99.90;;;;;;5020598;28;20412;-68
2023/11/06 05:47:35;;;;;;;2.83;0.98;;;10.10;99.90;;;;;;4991247;28;20862;-68
2023/11/06 05:50:02;;;;;;;0.47;0.32;;;10.20;99.90;;;;;;5000476;28;20038;-68
2023/11/06 05:52:27;;;;;;;0.38;0.30;;;10.20;99.90;;;;;;5011892;28;20113;-69
2023/11/06 05:54:53;;;;;;;0.10;0.10;;;10.20;99.90;;;;;;5013678;28;20070;-66
2023/11/06 05:57:19;;;;;;;5.90;1.55;;;10.20;99.90;;;;;;5009164;28;20045;-68
2023/11/06 05:59:44;;;;;;;2.90;1.65;;;10.30;99.90;;;;;;5017242;28;20397;-67
2023/11/06 06:02:10;;;;;;;1.30;0.57;;;10.30;99.90;;;;;;4994582;28;20034;-67
2023/11/06 06:04:38;;;;;;;0.22;0.17;;;10.30;99.90;;;;;;4994609;28;20037;-68
2023/11/06 06:07:09;;;;;;;0.00;0.00;;;10.30;99.90;;;;;;4994119;28;20044;-67
2023/11/06 06:09:36;;;;;;;0.40;0.25;;;10.30;99.90;;;;;;4993427;28;20036;-68
2023/11/06 06:12:03;;;;;;;0.10;0.10;;;10.30;99.90;;;;;;5010889;28;20120;-68
2023/11/06 06:14:29;;;;;;;7.22;1.45;;;10.30;99.90;;;;;;4995172;28;20069;-67
2023/11/06 06:16:54;;;;;;;0.10;0.10;;;10.30;99.90;;;;;;5016604;28;20073;-68
2023/11/06 06:19:21;;;;;;;0.63;0.47;;;10.30;99.90;;;;;;5017154;28;20076;-68
2023/11/06 06:21:47;;;;;;;2.33;0.70;;;10.30;99.90;;;;;;5017134;28;20045;-69
2023/11/06 06:24:15;;;;;;;1.60;0.45;;;10.30;99.90;;;;;;5011655;28;20479;-67
2023/11/06 06:26:40;;;;;;;4.28;1.08;;;10.30;99.90;;;;;;5010538;28;20180;-68
2023/11/06 06:29:06;;;;;;;0.25;0.25;;;10.40;99.90;;;;;;5011500;28;20104;-68
2023/11/06 06:31:32;;;;;;;1.00;0.65;;;10.30;99.90;;;;;;5010602;28;20045;-68
2023/11/06 06:34:00;;;;;;;2.30;0.73;;;10.40;99.90;;;;;;4994468;28;20048;-67
2023/11/06 06:36:26;;;;;;;0.28;0.28;;;10.30;99.90;;;;;;5009971;28;20038;-68
2023/11/06 06:38:52;;;;;;;4.60;0.82;;;10.40;99.90;;;;;;5018435;28;20474;-68
2023/11/06 06:41:18;;;;;;;3.75;1.08;;;10.40;99.90;;;;;;5016031;28;20038;-68
2023/11/06 06:43:44;;;;;;;3.78;0.90;;;10.50;99.90;;;;;;5011430;28;20044;-68
2023/11/06 06:46:10;;;;;;;0.88;0.38;;;10.50;99.90;;;;;;5009667;28;20569;-65
2023/11/06 06:48:36;;;;;;;1.35;1.17;;;10.50;99.90;;;;;;5011373;28;20034;-66
2023/11/06 06:51:02;;;;;;;0.30;0.25;;;10.50;99.90;;;;;;5010318;28;20041;-66
2023/11/06 06:53:27;;;;;;;5.78;0.43;;;10.50;99.90;;;;;;4993303;28;20036;-66
2023/11/06 06:55:53;;;;;;;0.45;0.38;;;10.50;99.90;;;;;;5014372;28;20039;-66
2023/11/06 06:58:19;;;;;;;0.77;0.22;;;10.50;99.90;;;;;;5010546;28;20083;-66
2023/11/06 07:00:45;;;;;;;10.50;1.65;;;10.50;99.90;;;;;;5013121;28;20026;-67
2023/11/06 07:03:11;;;;;;;1.17;0.52;;;10.60;99.90;;;;;;5010938;28;20092;-65
2023/11/06 07:05:37;;;;;;;1.85;0.35;;;10.50;99.90;;;;;;5010298;28;20403;-69
2023/11/06 07:08:03;;;;;;;1.65;0.30;;;10.50;99.90;;;;;;5010879;28;20022;-66
2023/11/06 07:10:32;;;;;;;0.93;0.57;;;10.50;99.90;;;;;;5010067;28;20030;-65
2023/11/06 07:12:58;;;;;;;1.33;0.50;;;10.50;99.90;;;;;;5010994;28;20061;-66
2023/11/06 07:15:25;;;;;;;3.42;0.93;;;10.40;99.90;;;;;;4992727;28;20505;-65
2023/11/06 07:17:56;;;;;;;1.23;0.60;;;10.50;99.90;;;;;;5008167;28;20041;-65
2023/11/06 07:20:22;;;;;;;1.63;1.17;;;10.50;99.90;;;;;;5002634;28;20022;-57
2023/11/06 07:22:49;;;;;;;4.30;2.35;;;10.60;99.90;;;;;;5010427;28;20034;-61
2023/11/06 07:25:16;;;;;;;1.00;0.65;;;10.60;99.90;;;;;;5014470;28;20025;-61
2023/11/06 07:27:43;;;;;;;0.10;0.10;;;10.60;99.90;;;;;;4996923;28;20042;-61
2023/11/06 07:30:11;;;;;;;0.82;0.45;;;10.60;99.90;;;;;;5015672;28;20034;-59
2023/11/06 07:32:36;;;;;;;4.90;1.13;;;10.60;99.90;;;;;;5014063;28;20026;-60
2023/11/06 07:35:03;;;;;;;4.50;1.17;;;10.60;99.90;;;;;;5009676;28;20030;-60
2023/11/06 07:37:30;;;;;;;5.28;0.60;;;10.70;99.90;;;;;;5003987;28;20026;-58
2023/11/06 07:39:56;;;;;;;12.45;1.52;;;10.70;99.90;;;;;;4993018;28;20117;-61
2023/11/06 07:42:22;;;;;;;6.50;1.17;;;10.80;99.90;;;;;;5010366;28;20390;-66
2023/11/06 07:44:48;;;;;;;2.17;0.98;;;10.80;99.90;;;;;;5010282;28;20044;-66
2023/11/06 07:47:14;;;;;;;0.30;0.22;;;10.80;99.90;;;;;;5008812;28;20417;-66
2023/11/06 07:49:40;;;;;;;0.57;0.35;;;10.90;99.90;;;;;;5004986;28;20038;-66
2023/11/06 07:52:10;;;;;;;0.43;0.20;;;10.90;99.90;;;;;;5018606;28;20037;-66
2023/11/06 07:54:40;;;;;;;0.77;0.30;;;11.00;99.90;;;;;;5011255;28;20053;-67
2023/11/06 07:57:06;;;;;;;0.10;0.10;;;11.00;99.90;;;;;;5008346;28;20037;-67
2023/11/06 07:59:32;;;;;;;0.30;0.15;;;11.10;99.90;;;;;;4996160;28;20033;-67
2023/11/06 08:01:59;;;;;;;4.28;0.68;;;11.10;99.90;;;;;;4998349;28;20497;-66
2023/11/06 08:04:25;;;;;;;0.00;0.00;;;11.10;99.90;;;;;;4975554;28;20077;-65
2023/11/06 08:06:51;;;;;;;1.25;0.35;;;11.10;99.90;;;;;;5012406;28;20038;-66
2023/11/06 08:09:17;;;;;;;0.35;0.20;;;11.20;99.90;;;;;;5011741;28;20398;-67
2023/11/06 08:11:43;;;;;;;4.47;0.93;;;11.20;99.90;;;;;;4999829;28;20486;-66
2023/11/06 08:14:08;;;;;;;4.47;0.10;;;11.20;99.90;;;;;;5026669;28;20167;-67
2023/11/06 08:16:35;;;;;;;1.02;0.28;;;11.20;99.90;;;;;;5016857;28;20045;-67
2023/11/06 08:19:02;;;;;;;5.18;0.68;;;11.20;99.90;;;;;;5018464;28;20026;-65
2023/11/06 08:21:28;;;;;;;3.72;0.90;;;11.30;99.90;;;;;;4994074;28;20037;-65
2023/11/06 08:23:54;;;;;;;0.30;0.30;;;11.30;99.90;;;;;;5004487;28;20033;-65
2023/11/06 08:26:22;;;;;;;0.75;0.30;;;11.40;99.90;;;;;;5011276;28;20568;-65
2023/11/06 08:28:48;;;;;;;3.75;0.70;;;11.40;99.90;;;;;;5014166;28;20086;-65
2023/11/06 08:31:17;;;;;;;2.72;0.80;;;11.50;99.90;;;;;;5012174;28;20029;-65
2023/11/06 08:33:42;;;;;;;19.70;3.75;;;11.50;99.90;;;;;;4997321;28;20048;-65
2023/11/06 08:36:09;;;;;;;0.05;0.03;;;11.60;99.90;;;;;;5019026;28;20034;-65
2023/11/06 08:38:35;;;;;;;0.10;0.05;;;11.70;99.90;;;;;;5023770;28;20079;-67
2023/11/06 08:41:02;;;;;;;0.40;0.38;;;11.70;99.90;;;;;;5001486;28;20037;-65
2023/11/06 08:43:28;;;;;;;2.70;0.30;;;11.90;99.90;;;;;;5007955;28;20111;-65
2023/11/06 08:45:56;;;;;;;2.17;1.27;;;11.80;99.90;;;;;;4997883;28;21426;-65
2023/11/06 08:48:21;;;;;;;3.42;0.85;;;11.80;99.90;;;;;;5019009;28;20022;-65
2023/11/06 08:50:49;;;;;;;9.80;0.90;;;11.80;99.90;;;;;;4993142;28;20036;-65
2023/11/06 08:53:14;;;;;;;6.13;0.50;;;11.90;99.90;;;;;;5018969;28;20111;-65
2023/11/06 08:55:40;;;;;;;0.88;0.70;;;12.00;99.90;;;;;;5014901;28;20037;-65
2023/11/06 08:58:15;;;;;;;12.15;1.10;;;12.00;99.90;;;;;;5013386;28;20026;-65
2023/11/06 09:00:41;;;;;;;0.77;0.40;;;11.90;99.90;;;;;;5011860;28;20049;-66
2023/11/06 09:03:09;;;;;;;1.85;1.05;;;12.00;99.90;;;;;;5018909;28;20033;-65
2023/11/06 09:05:36;;;;;;;2.88;0.52;;;12.20;99.90;;;;;;4997070;28;20478;-65
2023/11/06 09:08:02;;;;;;;0.30;0.10;;;12.30;99.90;;;;;;5011599;28;20033;-65
2023/11/06 09:10:28;;;;;;;0.73;0.35;;;12.60;99.90;;;;;;5010946;28;20022;-67
2023/11/06 09:12:55;;;;;;;3.92;0.73;;;12.80;99.90;;;;;;4999206;28;20091;-66
2023/11/06 09:15:21;;;;;;;0.65;0.43;;;12.80;99.90;;;;;;5014851;28;20034;-66
2023/11/06 09:17:46;;;;;;;2.72;0.20;;;12.90;99.90;;;;;;5017760;28;20074;-65
2023/11/06 09:20:12;;;;;;;1.55;0.40;;;12.80;99.90;;;;;;5012008;28;20026;-65
2023/11/06 09:22:38;;;;;;;4.03;0.88;;;12.90;99.90;;;;;;5010612;28;20083;-65
2023/11/06 09:25:05;;;;;;;1.35;0.22;;;13.10;99.90;;;;;;5011619;28;20483;-66
2023/11/06 09:27:34;;;;;;;1.05;0.20;;;12.90;99.90;;;;;;4995385;28;20374;-66
2023/11/06 09:30:01;;;;;;;0.73;0.43;;;12.70;99.90;;;;;;5012398;28;20109;-66
2023/11/06 09:32:27;;;;;;;0.10;0.10;;;12.80;99.90;;;;;;5012801;28;20069;-66
2023/11/06 09:34:53;;;;;;;0.10;0.10;;;12.80;99.90;;;;;;4992996;28;20116;-65
2023/11/06 09:37:19;;;;;;;0.77;0.25;;;12.90;99.90;;;;;;5009951;28;20655;-66
2023/11/06 09:39:45;;;;;;;5.05;0.88;;;13.00;99.90;;;;;;5011368;28;20386;-66
2023/11/06 09:42:11;;;;;;;0.40;0.30;;;12.90;99.90;;;;;;5010588;28;20038;-66
2023/11/06 09:44:38;;;;;;;8.55;1.50;;;12.70;99.90;;;;;;5011498;28;20095;-65
2023/11/06 09:47:07;;;;;;;2.60;0.45;;;12.50;99.90;;;;;;5013174;28;20029;-65
2023/11/06 09:49:49;;;;;;;1.65;0.65;;;12.50;99.90;;;;;;5021805;28;20033;-65
2023/11/06 09:52:18;;;;;;;5.53;0.52;;;12.40;99.90;;;;;;5008962;28;20037;-65
2023/11/06 09:54:47;;;;;;;0.63;0.50;;;12.40;99.90;;;;;;5017051;28;20036;-66
2023/11/06 09:57:14;;;;;;;2.50;0.73;;;12.40;99.90;;;;;;5010498;28;20048;-66
2023/11/06 09:59:40;;;;;;;1.02;0.32;;;12.90;99.90;;;;;;5015077;28;20045;-66
2023/11/06 10:02:07;;;;;;;0.45;0.20;;;13.40;99.90;;;;;;5011075;28;20049;-66
2023/11/06 10:04:36;;;;;;;4.82;0.70;;;14.50;99.90;;;;;;4994444;28;20049;-66
2023/11/06 10:07:05;;;;;;;4.38;1.33;;;14.90;99.90;;;;;;5017349;28;20473;-66
2023/11/06 10:09:31;;;;;;;0.00;0.00;;;13.70;99.90;;;;;;5012677;28;20029;-67
2023/11/06 10:12:17;;;;;;;1.23;0.17;;;13.20;99.90;;;;;;5013111;28;20044;-66
2023/11/06 10:14:46;;;;;;;0.40;0.40;;;13.00;99.90;;;;;;4994320;28;20033;-66
2023/11/06 10:17:12;;;;;;;0.60;0.35;;;12.90;99.90;;;;;;5010167;28;20033;-68
2023/11/06 10:19:38;;;;;;;1.23;0.47;;;12.70;99.90;;;;;;5009796;28;20036;-68
2023/11/06 10:22:14;;;;;;;1.52;0.73;;;12.70;99.90;;;;;;5015234;28;20033;-68
2023/11/06 10:24:49;;;;;;;3.88;0.75;;;12.60;99.90;;;;;;5009466;28;20560;-67
2023/11/06 10:27:33;;;;;;;1.58;0.30;;;12.60;99.90;;;;;;5008345;28;20042;-66
2023/11/06 10:30:05;;;;;;;3.13;0.85;;;12.50;99.90;;;;;;4992553;28;20061;-66
2023/11/06 10:32:31;;;;;;;0.43;0.20;;;12.50;99.90;;;;;;5004521;28;20116;-66
2023/11/06 10:35:01;;;;;;;0.05;0.05;;;12.50;99.90;;;;;;5010329;28;20125;-67
2023/11/06 10:37:28;;;;;;;3.17;1.15;;;12.40;99.90;;;;;;5009765;28;20068;-66
2023/11/06 10:39:56;;;;;;;0.68;0.43;;;12.30;99.90;;;;;;5010972;28;20060;-66
2023/11/06 10:42:23;;;;;;;1.85;0.30;;;12.40;99.90;;;;;;5011120;28;20132;-66
2023/11/06 10:44:59;;;;;;;1.00;0.70;;;12.50;99.90;;;;;;5018619;28;20358;-66
2023/11/06 10:47:37;;;;;;;2.45;0.10;;;12.50;99.90;;;;;;5010817;28;20041;-64
2023/11/06 10:50:12;;;;;;;4.13;0.30;;;12.50;99.90;;;;;;5010156;28;20030;-64
2023/11/06 10:52:39;;;;;;;0.57;0.20;;;12.50;99.90;;;;;;5005646;28;20052;-65
2023/11/06 10:55:07;;;;;;;1.45;0.88;;;12.60;99.90;;;;;;5009193;28;20038;-64
2023/11/06 10:57:34;;;;;;;0.47;0.32;;;12.60;99.90;;;;;;5011282;28;20045;-65
2023/11/06 11:00:07;;;;;;;1.65;0.40;;;12.60;99.90;;;;;;5011269;28;20099;-67
2023/11/06 11:02:48;;;;;;;1.95;1.05;;;12.70;99.90;;;;;;5004070;28;20101;-65
2023/11/06 11:05:15;;;;;;;3.53;0.55;;;12.80;99.90;;;;;;4995520;28;20072;-67
2023/11/06 11:07:42;;;;;;;1.23;0.28;;;12.90;99.90;;;;;;5012749;28;20046;-65
2023/11/06 11:10:12;;;;;;;0.15;0.15;;;13.00;99.90;;;;;;4992592;28;20026;-65
2023/11/06 11:12:38;;;;;;;0.22;0.17;;;13.10;99.90;;;;;;5010977;28;20093;-66
2023/11/06 11:15:07;;;;;;;1.27;0.20;;;13.10;99.90;;;;;;4992277;28;20466;-65
2023/11/06 11:17:34;;;;;;;2.10;0.65;;;12.90;99.90;;;;;;5014083;28;20052;-65
2023/11/06 11:20:05;;;;;;;0.05;0.05;;;12.90;99.90;;;;;;5012002;28;20033;-66
2023/11/06 11:22:32;;;;;;;0.63;0.30;;;12.90;99.90;;;;;;5005981;28;20042;-66
2023/11/06 11:24:59;;;;;;;0.13;0.13;;;13.00;99.90;;;;;;4992626;28;20026;-65
2023/11/06 11:27:27;;;;;;;2.63;0.55;;;13.00;99.90;;;;;;5008042;28;20061;-66
2023/11/06 11:29:53;;;;;;;1.38;0.52;;;13.10;99.90;;;;;;4993006;28;20069;-65
2023/11/06 11:32:49;;;;;;;5.20;0.65;;;13.10;99.90;;;;;;5010678;28;20038;-65
2023/11/06 11:35:17;;;;;;;1.00;0.35;;;13.10;99.90;;;;;;5011352;28;20529;-66
2023/11/06 11:37:57;;;;;;;0.57;0.17;;;13.00;99.90;;;;;;5017754;28;20095;-65
2023/11/06 11:40:39;;;;;;;0.07;0.03;;;13.20;99.90;;;;;;5013406;28;20034;-66
2023/11/06 11:43:23;;;;;;;2.72;0.55;;;13.40;99.90;;;;;;5015152;28;20038;-66
2023/11/06 11:45:48;;;;;;;0.25;0.17;;;14.50;99.90;;;;;;5017371;28;20540;-66
2023/11/06 11:48:15;;;;;;;1.98;0.30;;;14.90;99.90;;;;;;5013705;28;20037;-66
2023/11/06 11:50:42;;;;;;;0.80;0.30;;;14.20;99.90;;;;;;5000756;28;20037;-67
2023/11/06 11:53:10;;;;;;;0.17;0.10;;;13.90;99.90;;;;;;5014072;28;20089;-66
2023/11/06 11:55:38;;;;;;;2.80;0.50;;;13.60;99.90;;;;;;4996186;28;20057;-66
2023/11/06 11:58:09;;;;;;;0.30;0.10;;;14.20;99.90;;;;;;5014698;28;20071;-67
2023/11/06 12:00:43;;;;;;;0.77;0.40;;;14.70;99.90;;;;;;4991410;28;20045;-66
2023/11/06 12:03:14;;;;;;;0.60;0.10;;;15.10;99.90;;;;;;4995593;28;20153;-65
2023/11/06 12:05:43;;;;;;;3.65;0.65;;;16.00;99.90;;;;;;5000201;28;20122;-66
2023/11/06 12:08:26;;;;;;;2.45;0.80;;;15.40;99.90;;;;;;5018332;28;20065;-68
2023/11/06 12:10:53;;;;;;;0.82;0.35;;;14.90;99.90;;;;;;4995346;28;20029;-65
2023/11/06 12:13:24;;;;;;;1.55;0.35;;;14.60;99.90;;;;;;4998615;28;20025;-68
2023/11/06 12:15:52;;;;;;;;;;;14.20;99.90;;;;;;4977842;28;20059;-74
2023/11/06 12:18:23;;;;;;;0.20;0.10;;;14.00;99.90;;;;;;5018309;28;19917;-76
2023/11/06 12:20:54;;;;;;;0.40;0.20;;;13.70;99.90;;;;;;4981990;28;20045;-75
2023/11/06 12:23:36;;;;;;;2.03;0.35;;;13.60;99.90;;;;;;5013481;28;20426;-74
2023/11/06 12:26:14;;;;;;;1.45;0.47;;;13.40;99.90;;;;;;4988473;28;20081;-76
2023/11/06 12:28:48;;;;;;;0.10;0.10;;;13.20;99.90;;;;;;5016664;28;20090;-67
2023/11/06 12:31:14;;;;;;;0.08;0.08;;;12.90;99.90;;;;;;5011927;28;20025;-65
2023/11/06 12:33:40;;;;;;;1.65;0.68;;;12.50;99.90;;;;;;5013070;28;20444;-65
2023/11/06 12:36:07;;;;;;;0.30;0.22;;;12.20;99.90;;;;;;5011658;28;20121;-65
2023/11/06 12:38:38;;;;;;;4.93;0.68;;;12.50;99.90;;;;;;5014786;28;20037;-65
2023/11/06 12:41:05;;;;;;;;;;;12.50;99.90;;;;;;4972241;28;20606;-65
2023/11/06 12:43:32;;;;;;;2.63;1.15;;;12.70;99.90;;;;;;4995610;28;19913;-65
2023/11/06 12:46:01;;;;;;;0.50;0.30;;;13.20;99.90;;;;;;4994450;28;20535;-67
2023/11/06 12:48:31;;;;;;;1.00;0.20;;;14.50;99.90;;;;;;4995825;28;20085;-68